DeKalb, IL

9:51 AM CDT on October 20, 2017 (GMT -0500)
De Kalb Taylor Municipal

Weather History for KDKB - January, 2012

Change the Weather History Date:

Thursday, January 19, 2012

  Actual Average (KARR) Record (KARR)
Temperature  
Mean Temperature 16 °F -  
Max Temperature 28 °F 25 °F 55 °F (2006)
Min Temperature 3 °F 11 °F -6 °F (2008)
Degree Days  
Heating Degree Days 50    
Moisture  
Dew Point -1 °F    
Average Humidity 54    
Maximum Humidity 80    
Minimum Humidity 37    
Precipitation  
Precipitation 0.00 in - - ()
Sea Level Pressure  
Sea Level Pressure 29.97 in    
Wind  
Wind Speed 14 mph (WNW)    
Max Wind Speed 25 mph    
Max Gust Speed 30 mph    
Visibility 10 miles    
Events Snow    
Averages and records for this station are not official NWS values.
T = Trace of Precipitation, MM = Missing Value Source: NWS Daily Summary

Daily Weather History Graph

Daily Weather History Graph

Search for Another Location

Airport or City:

Trip Planner

Search our weather history database for the weather conditions in past years. The results will help you decide how hot, cold, wet, or windy it might be!

Date:

Astronomy

Jan. 19, 2012 Rise Set
Actual Time 7:18 AM CST 4:52 PM CST
Civil Twilight 6:47 AM CST 5:23 PM CST
Nautical Twilight 6:13 AM CST 5:57 PM CST
Astronomical Twilight 5:40 AM CST 6:31 PM CST
Moon 3:55 AM CST (1/19) 1:23 PM CST (1/19)
Length of Visible Light 10h 35m
Length of Day
9h 34m
Waning Crescent, 15% of the Moon is Illuminated
Jan 19
Waning Crescent
Jan 23
New
Jan 30
First Quarter
Feb 7
Full
Feb 14
Last Quarter

Hourly Weather History & Observations

Time (CST) Temp. Windchill Dew Point Humidity Pressure Visibility Wind Dir Wind Speed Gust Speed Precip Events Conditions
12:15 AM 25.2 °F 12.4 °F 18.3 °F 75% 29.79 in 10.0 mi South 16.1 mph - N/A   Scattered Clouds
12:35 AM 25.2 °F 13.3 °F 18.1 °F 75% 29.79 in 10.0 mi SSW 13.8 mph - N/A   Scattered Clouds
1:15 AM 25.3 °F 14.7 °F 18.1 °F 74% 29.79 in 10.0 mi SSW 11.5 mph - N/A   Clear
1:35 AM 26.1 °F 15.0 °F 18.3 °F 73% 29.79 in 10.0 mi SW 12.7 mph - N/A   Mostly Cloudy
1:55 AM 26.4 °F 16.6 °F 18.3 °F 71% 29.79 in 10.0 mi SW 10.4 mph - N/A   Scattered Clouds
2:15 AM 27.5 °F 17.4 °F 18.5 °F 69% 29.78 in 10.0 mi SW 11.5 mph - N/A   Mostly Cloudy
2:35 AM 27.9 °F 16.8 °F 18.5 °F 68% 29.79 in 10.0 mi WSW 13.8 mph - N/A   Mostly Cloudy
2:55 AM 28.2 °F 17.7 °F 18.5 °F 67% 29.79 in 7.0 mi West 12.7 mph - N/A Snow Light Snow
3:15 AM 27.0 °F 14.7 °F 20.1 °F 75% 29.79 in 1.8 mi WSW 16.1 mph 23.0 mph N/A Snow Light Snow
3:35 AM 26.4 °F 16.6 °F 20.8 °F 79% 29.78 in 2.5 mi WSW 10.4 mph - N/A Snow Light Snow
3:55 AM 26.4 °F 15.0 °F 21.0 °F 80% 29.78 in 3.0 mi WSW 13.8 mph 18.4 mph N/A Snow Light Snow
4:15 AM 26.4 °F 15.5 °F 21.0 °F 80% 29.78 in 7.0 mi West 12.7 mph 19.6 mph N/A Snow Light Snow
4:35 AM 26.4 °F 14.0 °F 20.7 °F 79% 29.79 in 7.0 mi West 16.1 mph - N/A Snow Light Snow
4:55 AM 25.9 °F 12.5 °F 19.9 °F 78% 29.79 in 10.0 mi West 18.4 mph - N/A Snow Light Snow
5:15 AM 22.1 °F 5.4 °F 9.3 °F 58% 29.81 in 10.0 mi WNW 25.3 mph 29.9 mph N/A   Overcast
5:35 AM 18.9 °F 2.1 °F 7.7 °F 62% 29.83 in 10.0 mi WNW 21.9 mph 27.6 mph N/A   Overcast
5:55 AM 18.3 °F 2.2 °F 7.7 °F 63% 29.84 in 10.0 mi WNW 19.6 mph 25.3 mph N/A   Overcast
6:15 AM 17.4 °F 0.6 °F 5.5 °F 60% 29.86 in 10.0 mi WNW 20.7 mph 26.5 mph N/A   Overcast
6:35 AM 16.5 °F -0.1 °F 5.0 °F 61% 29.87 in 10.0 mi WNW 19.6 mph 25.3 mph N/A   Overcast
6:55 AM 15.8 °F -1.5 °F 3.6 °F 59% 29.89 in 10.0 mi WNW 20.7 mph 28.8 mph N/A   Overcast
7:15 AM 14.9 °F -1.8 °F 2.8 °F 59% 29.91 in 10.0 mi WNW 18.4 mph 25.3 mph N/A   Overcast
7:35 AM 14.0 °F -4.3 °F 1.8 °F 58% 29.93 in 10.0 mi WNW 21.9 mph 26.5 mph N/A   Overcast
7:55 AM 13.8 °F -3.2 °F 1.0 °F 57% 29.95 in 10.0 mi NW 18.4 mph 26.5 mph N/A   Mostly Cloudy
8:15 AM 13.1 °F -2.0 °F -2.4 °F 50% 29.97 in 10.0 mi NW 13.8 mph 19.6 mph N/A   Mostly Cloudy
8:35 AM 12.7 °F -3.6 °F -0.4 °F 56% 29.98 in 10.0 mi WNW 16.1 mph 24.2 mph N/A   Scattered Clouds
8:55 AM 12.0 °F -4.0 °F -0.6 °F 57% 29.99 in 10.0 mi WNW 15.0 mph 20.7 mph N/A   Clear
9:15 AM 11.8 °F -4.2 °F -1.1 °F 56% 30.00 in 10.0 mi WNW 15.0 mph 18.4 mph N/A   Scattered Clouds
9:35 AM 11.3 °F -4.9 °F -6.7 °F 44% 30.01 in 10.0 mi NW 15.0 mph 21.9 mph N/A   Clear
9:55 AM 11.1 °F -5.7 °F -5.8 °F 47% 30.01 in 10.0 mi NW 16.1 mph - N/A   Clear
10:15 AM 10.4 °F -6.0 °F -8.0 °F 43% 30.03 in 10.0 mi NW 15.0 mph 26.5 mph N/A   Clear
10:35 AM 9.5 °F -7.8 °F -10.3 °F 40% 30.03 in 10.0 mi NNW 16.1 mph 26.5 mph N/A   Clear
10:55 AM 10.0 °F -5.2 °F -8.0 °F 44% 30.02 in 10.0 mi NNW 12.7 mph 18.4 mph N/A   Clear
11:15 AM 10.0 °F -7.1 °F -8.1 °F 44% 30.03 in 10.0 mi NNW 16.1 mph 21.9 mph N/A   Clear
11:35 AM 10.0 °F -6.5 °F -9.6 °F 41% 30.03 in 10.0 mi NW 15.0 mph 23.0 mph N/A   Clear
12:15 PM 9.5 °F -5.2 °F -9.4 °F 42% 30.03 in 10.0 mi NNW 11.5 mph 19.6 mph N/A   Clear
12:35 PM 9.3 °F -4.6 °F -8.5 °F 44% 30.02 in 10.0 mi NW 10.4 mph - N/A   Clear
12:55 PM 9.3 °F -6.8 °F -9.9 °F 42% 30.03 in 10.0 mi NNW 13.8 mph 20.7 mph N/A   Clear
1:15 PM 9.1 °F -7.0 °F -10.5 °F 41% 30.03 in 10.0 mi NNW 13.8 mph - N/A   Clear
1:35 PM 9.0 °F -4.2 °F -11.0 °F 40% 30.04 in 10.0 mi NNW 9.2 mph - N/A   Clear
1:55 PM 9.3 °F -4.6 °F -11.2 °F 39% 30.05 in 10.0 mi North 10.4 mph - N/A   Clear
2:15 PM 8.6 °F -6.3 °F -9.4 °F 44% 30.05 in 10.0 mi NW 11.5 mph - N/A   Clear
2:35 PM 9.1 °F -5.6 °F -10.5 °F 41% 30.06 in 10.0 mi NNW 11.5 mph - N/A   Clear
2:55 PM 9.1 °F -4.9 °F -9.0 °F 44% 30.07 in 10.0 mi NNW 10.4 mph - N/A   Clear
3:15 PM 8.6 °F -5.5 °F -11.7 °F 39% 30.08 in 10.0 mi NNW 10.4 mph 16.1 mph N/A   Clear
3:35 PM 8.6 °F -5.5 °F -11.4 °F 40% 30.08 in 10.0 mi NW 10.4 mph - N/A   Clear
3:55 PM 8.4 °F -7.3 °F -11.4 °F 40% 30.09 in 10.0 mi NNW 12.7 mph - N/A   Clear
4:15 PM 8.1 °F -4.3 °F -11.9 °F 40% 30.11 in 10.0 mi NNW 8.1 mph - N/A   Clear
4:35 PM 6.8 °F -6.9 °F -13.0 °F 40% 30.11 in 10.0 mi NNW 9.2 mph - N/A   Clear
4:55 PM 6.8 °F -6.9 °F -13.0 °F 40% 30.11 in 10.0 mi NW 9.2 mph - N/A   Clear
5:15 PM 6.6 °F -5.0 °F -14.8 °F 37% 30.12 in 10.0 mi NW 6.9 mph - N/A   Clear
5:35 PM 6.3 °F -4.1 °F -15.0 °F 37% 30.13 in 10.0 mi NW 5.8 mph - N/A   Clear
5:55 PM 5.0 °F -5.6 °F -11.6 °F 46% 30.13 in 10.0 mi WNW 5.8 mph - N/A   Clear
6:15 PM 5.2 °F -6.7 °F -10.8 °F 48% 30.12 in 10.0 mi NW 6.9 mph - N/A   Clear
6:35 PM 4.6 °F -7.4 °F -10.7 °F 49% 30.13 in 10.0 mi WNW 6.9 mph - N/A   Clear
6:55 PM 4.6 °F -9.5 °F -10.8 °F 49% 30.14 in 10.0 mi WNW 9.2 mph - N/A   Clear
7:15 PM 4.1 °F -10.2 °F -10.5 °F 51% 30.14 in 10.0 mi WNW 9.2 mph - N/A   Clear
7:35 PM 4.1 °F -9.2 °F -10.3 °F 51% 30.14 in 10.0 mi WNW 8.1 mph - N/A   Clear
7:55 PM 4.1 °F -9.2 °F -10.7 °F 51% 30.15 in 10.0 mi WNW 8.1 mph - N/A   Clear
8:15 PM 3.6 °F -8.7 °F -10.3 °F 53% 30.15 in 10.0 mi WNW 6.9 mph - N/A   Clear
8:35 PM 3.7 °F -8.4 °F -10.3 °F 52% 30.15 in 10.0 mi NW 6.9 mph - N/A   Clear
8:55 PM 3.7 °F -11.6 °F -10.5 °F 52% 30.16 in 10.0 mi WNW 10.4 mph - N/A   Clear
9:35 PM 3.7 °F -9.6 °F -10.7 °F 51% 30.17 in 10.0 mi WNW 8.1 mph - N/A   Clear
10:15 PM 3.2 °F -9.1 °F -10.5 °F 53% 30.17 in 10.0 mi WNW 6.9 mph - N/A   Clear
10:35 PM 3.2 °F -7.8 °F -10.7 °F 53% 30.16 in 10.0 mi NNW 5.8 mph - N/A   Clear
10:55 PM 3.2 °F -7.8 °F -11.6 °F 50% 30.16 in 10.0 mi NW 5.8 mph - N/A   Clear
11:15 PM 3.0 °F -8.0 °F -11.7 °F 50% 30.17 in 10.0 mi NNW 5.8 mph - N/A   Clear
11:35 PM 2.3 °F -5.2 °F -10.8 °F 54% 30.16 in 10.0 mi NNW 3.5 mph - N/A   Clear
11:55 PM 2.3 °F -7.2 °F -10.8 °F 54% 30.17 in 10.0 mi NNW 4.6 mph - N/A   Clear